createdAt,value
2023-11-03T00:00:03.774Z,1.70
2023-11-03T00:05:14.463Z,1.92
2023-11-03T00:10:17.907Z,1.52
2023-11-03T00:15:19.652Z,1.77
2023-11-03T00:20:21.238Z,1.70
2023-11-03T00:25:23.300Z,1.65
2023-11-03T00:30:24.793Z,1.60
2023-11-03T00:35:26.356Z,1.50
2023-11-03T00:40:27.896Z,2.00
2023-11-03T00:45:29.782Z,1.42
2023-11-03T00:50:31.255Z,1.90
2023-11-03T00:55:32.773Z,1.63
2023-11-03T01:00:41.986Z,1.50
2023-11-03T01:05:44.026Z,1.77
2023-11-03T01:10:45.461Z,1.50
2023-11-03T01:15:46.938Z,1.60
2023-11-03T01:20:53.308Z,1.73
2023-11-03T01:25:56.285Z,1.65
2023-11-03T01:30:58.307Z,1.65
2023-11-03T01:35:59.924Z,1.30
2023-11-03T01:41:02.925Z,1.90
2023-11-03T01:46:04.749Z,1.50
2023-11-03T01:51:06.442Z,1.83
2023-11-03T01:56:07.966Z,1.63
2023-11-03T02:01:09.443Z,1.20
2023-11-03T02:06:10.952Z,1.50
2023-11-03T02:11:12.425Z,1.45
2023-11-03T02:16:13.969Z,1.48
2023-11-03T02:21:16.240Z,1.70
2023-11-03T02:26:17.787Z,1.40
2023-11-03T02:31:19.253Z,1.40
2023-11-03T02:36:20.713Z,1.42
2023-11-03T02:41:22.364Z,1.90
2023-11-03T02:46:24.867Z,1.52
2023-11-03T02:51:26.430Z,1.40
2023-11-03T02:56:28.518Z,1.88
2023-11-03T03:01:37.517Z,1.90
2023-11-03T03:06:39.361Z,1.50
2023-11-03T03:11:41.342Z,1.70
2023-11-03T03:16:42.755Z,1.88
2023-11-03T03:21:44.345Z,2.58
2023-11-03T03:26:45.826Z,1.27
2023-11-03T03:31:47.372Z,1.38
2023-11-03T03:36:48.998Z,1.52
2023-11-03T03:41:52.800Z,1.35
2023-11-03T03:46:54.301Z,1.23
2023-11-03T03:51:55.763Z,1.30
2023-11-03T03:56:57.199Z,1.65
2023-11-03T04:01:58.788Z,1.50
2023-11-03T04:07:00.322Z,1.40
2023-11-03T04:12:01.805Z,1.40
2023-11-03T04:17:04.607Z,1.50
2023-11-03T04:22:06.152Z,1.48
2023-11-03T04:27:07.619Z,1.48
2023-11-03T04:32:09.070Z,1.70
2023-11-03T04:37:11.592Z,1.63
2023-11-03T04:42:13.172Z,1.85
2023-11-03T04:47:14.567Z,1.67
2023-11-03T04:52:16.068Z,1.60
2023-11-03T04:57:18.491Z,1.40
2023-11-03T05:02:20.249Z,1.33
2023-11-03T05:07:24.417Z,1.48
2023-11-03T05:12:25.837Z,1.30
2023-11-03T05:17:27.383Z,1.35
2023-11-03T05:22:29.035Z,1.67
2023-11-03T05:27:30.548Z,2.17
2023-11-03T05:32:32.980Z,1.65
2023-11-03T05:37:34.470Z,2.10
2023-11-03T05:42:36.045Z,1.83
2023-11-03T05:47:37.503Z,1.98
2023-11-03T05:52:39.099Z,1.65
2023-11-03T05:57:40.600Z,1.90
2023-11-03T06:02:42.424Z,1.63
2023-11-03T06:07:43.927Z,1.90
2023-11-03T06:12:47.923Z,2.47
2023-11-03T06:17:49.697Z,1.85
2023-11-03T06:22:51.322Z,2.30
2023-11-03T06:27:52.929Z,2.70
2023-11-03T06:32:54.496Z,2.60
2023-11-03T06:37:55.989Z,2.20
2023-11-03T06:42:57.574Z,2.03
2023-11-03T06:47:59.086Z,2.53
2023-11-03T06:53:00.914Z,2.08
2023-11-03T06:58:03.172Z,2.78
2023-11-03T07:03:04.715Z,2.90
2023-11-03T07:08:06.341Z,1.98
2023-11-03T07:13:08.721Z,2.20
2023-11-03T07:18:11.035Z,1.90
2023-11-03T07:23:12.992Z,2.47
2023-11-03T07:28:14.904Z,2.20
2023-11-03T07:33:18.562Z,2.70
2023-11-03T07:38:23.036Z,2.53
2023-11-03T07:43:24.896Z,1.95
2023-11-03T07:48:26.747Z,2.13
2023-11-03T07:53:28.380Z,2.25
2023-11-03T07:58:30.777Z,2.10
2023-11-03T08:03:35.107Z,1.73
2023-11-03T08:08:38.213Z,3.08
2023-11-03T08:13:41.805Z,2.05
2023-11-03T08:18:43.585Z,2.22
2023-11-03T08:23:45.409Z,3.22
2023-11-03T08:28:47.433Z,3.22
2023-11-03T08:33:49.041Z,2.80
2023-11-03T08:38:55.837Z,3.15
2023-11-03T08:43:57.450Z,2.70
2023-11-03T08:49:00.690Z,2.75
2023-11-03T08:54:02.324Z,3.28
2023-11-03T08:59:04.911Z,2.58
2023-11-03T09:04:06.520Z,2.53
2023-11-03T09:09:09.321Z,2.63
2023-11-03T09:14:11.234Z,2.40
2023-11-03T09:19:13.063Z,2.75
2023-11-03T09:24:14.879Z,2.70
2023-11-03T09:29:16.637Z,2.65
2023-11-03T09:34:18.238Z,3.25
2023-11-03T09:39:19.762Z,3.60
2023-11-03T09:44:21.757Z,2.90
2023-11-03T09:49:23.638Z,2.88
2023-11-03T09:54:26.188Z,2.60
2023-11-03T09:59:27.844Z,2.53
2023-11-03T10:04:29.316Z,2.92
2023-11-03T10:09:30.805Z,3.10
2023-11-03T10:14:32.274Z,2.28
2023-11-03T10:19:34.866Z,2.22
2023-11-03T10:24:37.459Z,2.90
2023-11-03T10:29:39.593Z,2.25
2023-11-03T10:34:41.999Z,2.97
2023-11-03T10:39:47.166Z,2.90
2023-11-03T10:44:51.205Z,3.33
2023-11-03T10:49:55.970Z,3.97
2023-11-03T10:55:05.640Z,3.55
2023-11-03T11:00:11.049Z,2.55
2023-11-03T11:05:16.272Z,2.85
2023-11-03T11:10:20.522Z,2.95
2023-11-03T11:15:22.542Z,2.88
2023-11-03T11:20:37.948Z,2.40
2023-11-03T11:25:42.936Z,2.38
2023-11-03T11:30:44.378Z,1.95
2023-11-03T11:35:45.853Z,2.63
2023-11-03T11:40:48.299Z,2.42
2023-11-03T11:45:51.565Z,2.67
2023-11-03T11:50:53.114Z,1.60
2023-11-03T11:55:54.722Z,4.28
2023-11-03T12:00:59.195Z,3.85
2023-11-03T12:06:01.050Z,3.10
2023-11-03T12:11:02.938Z,2.63
2023-11-03T12:16:05.597Z,3.40
2023-11-03T12:21:08.593Z,2.65
2023-11-03T12:26:11.719Z,2.40
2023-11-03T12:31:13.344Z,2.95
2023-11-03T12:36:15.757Z,3.33
2023-11-03T12:41:18.053Z,3.17
2023-11-03T12:46:19.534Z,2.97
2023-11-03T12:51:30.872Z,2.47
2023-11-03T12:56:51.028Z,2.83
2023-11-03T13:01:52.487Z,2.28
2023-11-03T13:06:58.978Z,2.63
2023-11-03T13:12:03.497Z,2.97
2023-11-03T13:17:05.651Z,3.08
2023-11-03T13:22:07.488Z,3.00
2023-11-03T13:27:09.027Z,2.05
2023-11-03T13:32:12.328Z,2.25
2023-11-03T13:37:14.288Z,2.97
2023-11-03T13:42:15.760Z,4.88
2023-11-03T13:47:17.495Z,3.08
2023-11-03T13:52:19.139Z,2.60
2023-11-03T13:57:20.697Z,3.00
2023-11-03T14:02:26.095Z,2.53
2023-11-03T14:07:27.729Z,2.97
2023-11-03T14:12:29.681Z,2.17
2023-11-03T14:17:31.993Z,3.00
2023-11-03T14:22:33.596Z,3.55
2023-11-03T14:27:35.994Z,2.55
2023-11-03T14:32:38.924Z,3.20
2023-11-03T14:37:42.355Z,2.40
2023-11-03T14:42:45.699Z,2.00
2023-11-03T14:47:47.459Z,2.65
2023-11-03T14:52:49.154Z,2.97
2023-11-03T14:57:50.652Z,2.70
2023-11-03T15:02:52.123Z,3.15
2023-11-03T15:07:53.659Z,3.35
2023-11-03T15:12:57.396Z,2.03
2023-11-03T15:18:01.742Z,3.63
2023-11-03T15:23:03.933Z,3.63
2023-11-03T15:28:07.174Z,2.42
2023-11-03T15:33:12.032Z,1.95
2023-11-03T15:38:14.309Z,2.00
2023-11-03T15:43:15.850Z,2.10
2023-11-03T15:48:17.566Z,1.90
2023-11-03T15:53:19.299Z,2.30
2023-11-03T15:58:21.001Z,1.67
2023-11-03T16:03:23.216Z,2.10
2023-11-03T16:08:24.961Z,2.17
2023-11-03T16:13:26.617Z,1.70
2023-11-03T16:18:28.335Z,1.65
2023-11-03T16:23:29.938Z,1.73
2023-11-03T16:28:32.233Z,1.98
2023-11-03T16:33:33.788Z,1.95
2023-11-03T16:38:36.585Z,2.22
2023-11-03T16:43:38.041Z,1.70
2023-11-03T16:48:41.130Z,2.00
2023-11-03T16:53:42.862Z,1.73
2023-11-03T16:58:44.421Z,2.17
2023-11-03T17:03:45.991Z,1.70
2023-11-03T17:08:47.612Z,2.30
2023-11-03T17:13:49.144Z,2.00
2023-11-03T17:18:50.670Z,1.83
2023-11-03T17:23:53.115Z,1.73
2023-11-03T17:28:56.029Z,1.70
2023-11-03T17:33:57.660Z,1.67
2023-11-03T17:38:59.272Z,2.25
2023-11-03T17:44:00.864Z,1.73
2023-11-03T17:49:02.955Z,1.80
2023-11-03T17:54:05.405Z,2.95
2023-11-03T17:59:06.911Z,3.20
2023-11-03T18:04:08.810Z,2.63
2023-11-03T18:09:11.715Z,1.80
2023-11-03T18:14:17.626Z,1.90
2023-11-03T18:19:19.163Z,2.10
2023-11-03T18:24:20.816Z,2.10
2023-11-03T18:29:23.829Z,2.22
2023-11-03T18:34:25.433Z,1.88
2023-11-03T18:39:26.969Z,2.28
2023-11-03T18:44:28.667Z,2.17
2023-11-03T19:05:47.052Z,2.00
2023-11-03T19:10:06.649Z,1.98
2023-11-03T19:15:09.918Z,1.70
2023-11-03T19:20:11.861Z,2.10
2023-11-03T19:25:13.635Z,2.03
2023-11-03T19:30:15.275Z,2.20
2023-11-03T19:35:17.068Z,2.45
2023-11-03T19:40:21.570Z,1.60
2023-11-03T19:45:25.094Z,2.13
2023-11-03T19:50:26.679Z,2.00
2023-11-03T19:55:28.234Z,1.98
2023-11-03T20:00:30.913Z,1.80
2023-11-03T20:05:32.821Z,2.80
2023-11-03T20:10:34.413Z,2.33
2023-11-03T20:15:36.078Z,2.00
2023-11-03T20:20:37.771Z,2.35
2023-11-03T20:25:39.341Z,2.13
2023-11-03T20:30:41.388Z,1.90
2023-11-03T20:35:42.938Z,2.10
2023-11-03T20:40:44.987Z,1.85
2023-11-03T20:45:46.499Z,2.10
2023-11-03T20:50:48.106Z,1.92
2023-11-03T20:55:49.591Z,2.53
2023-11-03T21:00:51.318Z,2.53
2023-11-03T21:05:59.018Z,2.20
2023-11-03T21:11:00.586Z,2.20
2023-11-03T21:16:02.101Z,2.08
2023-11-03T21:21:04.317Z,2.20
2023-11-03T21:26:07.111Z,1.90
2023-11-03T21:31:13.397Z,2.33
2023-11-03T21:36:22.076Z,2.42
2023-11-03T21:41:23.581Z,1.77
2023-11-03T21:46:25.675Z,2.38
2023-11-03T21:51:27.215Z,2.60
2023-11-03T21:56:28.735Z,3.00
2023-11-03T22:01:30.314Z,2.65
2023-11-03T22:06:32.052Z,2.50
2023-11-03T22:11:33.508Z,2.90
2023-11-03T22:16:35.140Z,2.50
2023-11-03T22:21:36.650Z,2.40
2023-11-03T22:26:44.015Z,2.70
2023-11-03T22:31:49.176Z,2.42
2023-11-03T22:36:50.745Z,2.58
2023-11-03T22:41:52.300Z,2.20
2023-11-03T22:46:53.689Z,2.20
2023-11-03T22:51:55.169Z,2.42
2023-11-03T22:56:56.694Z,2.65
2023-11-03T23:01:58.179Z,2.60
2023-11-03T23:07:03.170Z,2.70
2023-11-03T23:12:04.689Z,2.60
2023-11-03T23:17:07.666Z,2.83
2023-11-03T23:22:10.162Z,2.45
2023-11-03T23:27:11.800Z,2.90
2023-11-03T23:32:13.267Z,2.65
2023-11-03T23:37:15.660Z,3.30
2023-11-03T23:42:17.223Z,3.13
2023-11-03T23:47:18.732Z,3.45
2023-11-03T23:52:20.178Z,3.35
2023-11-03T23:57:21.656Z,3.53
